createdAt,value
2019-05-25T00:01:13.586Z,15.95
2019-05-25T00:03:43.125Z,16.80
2019-05-25T00:06:12.713Z,18.02
2019-05-25T00:08:42.401Z,19.65
2019-05-25T00:11:12.168Z,16.05
2019-05-25T00:13:41.769Z,18.60
2019-05-25T00:16:11.291Z,22.30
2019-05-25T00:18:40.839Z,20.92
2019-05-25T00:21:13.642Z,18.37
2019-05-25T00:23:41.807Z,18.60
2019-05-25T00:26:11.350Z,18.60
2019-05-25T00:28:40.922Z,17.80
2019-05-25T00:31:10.527Z,17.20
2019-05-25T00:33:40.197Z,19.67
2019-05-25T00:36:09.770Z,17.37
2019-05-25T00:38:39.310Z,17.60
2019-05-25T00:41:08.920Z,19.98
2019-05-25T00:43:38.591Z,19.55
2019-05-25T00:46:08.133Z,22.42
2019-05-25T00:48:37.670Z,21.37
2019-05-25T00:51:07.284Z,22.42
2019-05-25T00:53:36.967Z,21.42
2019-05-25T00:56:06.606Z,21.37
2019-05-25T00:58:36.160Z,22.73
2019-05-25T01:01:06.421Z,18.45
2019-05-25T01:03:36.065Z,18.20
2019-05-25T01:06:06.630Z,18.02
2019-05-25T01:08:36.170Z,17.55
2019-05-25T01:11:05.939Z,19.15
2019-05-25T01:13:35.525Z,19.52
2019-05-25T01:16:05.381Z,20.08
2019-05-25T01:18:34.926Z,19.23
2019-05-25T01:21:04.633Z,19.12
2019-05-25T01:23:34.164Z,22.05
2019-05-25T01:26:03.771Z,17.57
2019-05-25T01:28:33.568Z,20.27
2019-05-25T01:31:03.181Z,17.92
2019-05-25T01:33:32.725Z,20.12
2019-05-25T01:36:02.311Z,20.57
2019-05-25T01:38:31.916Z,20.62
2019-05-25T01:41:01.522Z,19.67
2019-05-25T01:43:31.219Z,20.55
2019-05-25T01:46:00.790Z,20.95
2019-05-25T01:48:30.332Z,20.27
2019-05-25T01:50:59.982Z,20.15
2019-05-25T01:53:29.591Z,20.12
2019-05-25T01:55:59.124Z,20.55
2019-05-25T01:58:28.707Z,17.75
2019-05-25T02:00:58.301Z,21.90
2019-05-25T02:03:27.839Z,19.27
2019-05-25T02:05:57.508Z,24.35
2019-05-25T02:08:28.033Z,21.80
2019-05-25T02:10:57.573Z,19.05
2019-05-25T02:13:27.278Z,21.65
2019-05-25T02:15:56.868Z,17.73
2019-05-25T02:18:26.412Z,17.65
2019-05-25T02:20:56.054Z,21.65
2019-05-25T02:23:25.736Z,17.10
2019-05-25T02:25:55.272Z,19.62
2019-05-25T02:28:24.857Z,19.92
2019-05-25T02:30:54.391Z,18.90
2019-05-25T02:33:23.995Z,17.70
2019-05-25T02:35:53.884Z,20.30
2019-05-25T02:38:23.428Z,17.10
2019-05-25T02:40:53.043Z,18.30
2019-05-25T02:43:22.758Z,22.85
2019-05-25T02:45:52.667Z,18.32
2019-05-25T02:48:22.364Z,18.07
2019-05-25T02:50:53.078Z,18.52
2019-05-25T02:53:22.846Z,17.57
2019-05-25T02:55:52.558Z,20.43
2019-05-25T02:58:22.204Z,18.02
2019-05-25T03:00:51.985Z,17.37
2019-05-25T03:03:21.755Z,19.20
2019-05-25T03:05:51.876Z,15.32
2019-05-25T03:08:21.477Z,20.10
2019-05-25T03:10:51.180Z,21.57
2019-05-25T03:13:21.350Z,16.90
2019-05-25T03:15:50.882Z,19.25
2019-05-25T03:18:20.548Z,16.85
2019-05-25T03:20:50.108Z,17.27
2019-05-25T03:23:19.661Z,17.75
2019-05-25T03:25:50.329Z,20.97
2019-05-25T03:28:20.066Z,19.85
2019-05-25T03:30:49.671Z,19.50
2019-05-25T03:33:19.264Z,21.33
2019-05-25T03:35:49.066Z,20.20
2019-05-25T03:38:18.681Z,16.95
2019-05-25T03:40:48.204Z,15.95
2019-05-25T03:43:17.852Z,19.73
2019-05-25T03:45:47.537Z,18.15
2019-05-25T03:48:17.132Z,16.40
2019-05-25T03:50:46.774Z,18.42
2019-05-25T03:53:16.316Z,20.08
2019-05-25T03:55:45.989Z,20.10
2019-05-25T03:58:15.637Z,20.60
2019-05-25T04:00:45.173Z,17.50
2019-05-25T04:03:14.817Z,21.02
2019-05-25T04:05:44.395Z,25.02
2019-05-25T04:08:13.921Z,23.60
2019-05-25T04:10:43.534Z,20.37
2019-05-25T04:13:13.090Z,22.48
2019-05-25T04:15:42.935Z,21.00
2019-05-25T04:18:12.448Z,21.75
2019-05-25T04:20:42.087Z,23.52
2019-05-25T04:23:11.635Z,19.90
2019-05-25T04:25:41.827Z,27.77
2019-05-25T04:28:11.474Z,24.43
2019-05-25T04:30:41.087Z,27.02
2019-05-25T04:33:10.796Z,31.50
2019-05-25T04:35:40.583Z,32.75
2019-05-25T04:38:10.143Z,33.75
2019-05-25T04:40:39.764Z,33.38
2019-05-25T04:43:09.436Z,33.15
2019-05-25T04:45:39.230Z,34.23
2019-05-25T04:48:08.924Z,30.97
2019-05-25T04:50:38.628Z,31.10
2019-05-25T04:53:08.239Z,30.97
2019-05-25T04:55:37.919Z,32.25
2019-05-25T04:58:07.506Z,32.48
2019-05-25T05:00:37.045Z,29.85
2019-05-25T05:03:07.401Z,26.77
2019-05-25T05:05:37.654Z,27.50
2019-05-25T05:08:07.314Z,26.52
2019-05-25T05:10:36.920Z,25.65
2019-05-25T05:13:06.587Z,26.60
2019-05-25T05:15:36.127Z,23.92
2019-05-25T05:18:05.669Z,24.55
2019-05-25T05:20:35.265Z,22.25
2019-05-25T05:23:04.872Z,25.35
2019-05-25T05:25:34.494Z,23.45
2019-05-25T05:28:04.129Z,20.27
2019-05-25T05:30:35.181Z,19.12
2019-05-25T05:33:05.332Z,17.35
2019-05-25T05:35:38.711Z,21.70
2019-05-25T05:38:07.505Z,19.50
2019-05-25T05:40:37.825Z,17.00
2019-05-25T05:43:12.072Z,13.62
2019-05-25T05:45:47.709Z,17.73
2019-05-25T05:48:19.276Z,15.65
2019-05-25T05:50:50.424Z,14.18
2019-05-25T05:53:21.207Z,15.32
2019-05-25T05:55:50.844Z,13.72
2019-05-25T05:58:20.743Z,11.00
2019-05-25T06:00:50.425Z,13.68
2019-05-25T06:03:20.066Z,15.23
2019-05-25T06:05:50.460Z,12.75
2019-05-25T06:08:20.007Z,11.53
2019-05-25T06:10:49.669Z,11.20
2019-05-25T06:13:19.441Z,13.08
2019-05-25T06:15:49.048Z,12.35
2019-05-25T06:18:20.176Z,11.95
2019-05-25T06:20:49.706Z,11.05
2019-05-25T06:23:19.312Z,10.35
2019-05-25T06:25:48.888Z,9.83
2019-05-25T06:28:22.284Z,11.57
2019-05-25T06:30:50.048Z,12.47
2019-05-25T06:33:19.636Z,8.35
2019-05-25T06:35:49.228Z,11.35
2019-05-25T06:38:18.995Z,7.90
2019-05-25T06:40:48.773Z,7.60
2019-05-25T06:43:18.429Z,9.65
2019-05-25T06:45:48.020Z,8.78
2019-05-25T06:48:17.692Z,5.87
2019-05-25T06:50:47.312Z,7.95
2019-05-25T06:53:17.009Z,6.78
2019-05-25T06:55:48.821Z,6.85
2019-05-25T06:58:18.870Z,6.25
2019-05-25T07:00:49.374Z,9.15
2019-05-25T07:03:19.483Z,7.85
2019-05-25T07:05:49.260Z,8.15
2019-05-25T07:08:18.975Z,8.45
2019-05-25T07:10:49.059Z,6.22
2019-05-25T07:13:18.759Z,5.65
2019-05-25T07:15:49.527Z,9.48
2019-05-25T07:18:19.245Z,7.65
2019-05-25T07:20:48.936Z,5.45
2019-05-25T07:23:20.515Z,5.95
2019-05-25T07:25:50.207Z,6.62
2019-05-25T07:28:19.882Z,6.58
2019-05-25T07:30:49.564Z,9.25
2019-05-25T07:33:19.327Z,5.08
2019-05-25T07:35:48.869Z,8.03
2019-05-25T07:38:18.414Z,5.50
2019-05-25T07:40:48.258Z,6.28
2019-05-25T07:43:17.850Z,5.58
2019-05-25T07:45:47.385Z,5.67
2019-05-25T07:48:16.955Z,5.28
2019-05-25T07:50:46.506Z,4.47
2019-05-25T07:53:16.094Z,3.15
2019-05-25T07:55:46.239Z,4.80
2019-05-25T07:58:18.405Z,5.62
2019-05-25T08:00:47.068Z,5.45
2019-05-25T08:03:16.787Z,4.53
2019-05-25T08:05:46.722Z,5.22
2019-05-25T08:08:16.257Z,5.17
2019-05-25T08:10:45.829Z,5.92
2019-05-25T08:13:15.373Z,4.65
2019-05-25T08:15:45.128Z,5.58
2019-05-25T08:18:14.696Z,6.00
2019-05-25T08:20:47.143Z,5.97
2019-05-25T08:23:15.807Z,5.83
2019-05-25T08:25:45.396Z,4.67
2019-05-25T08:28:29.810Z,6.62
2019-05-25T08:30:46.769Z,4.47
2019-05-25T08:33:16.711Z,6.85
2019-05-25T08:35:46.621Z,6.10
2019-05-25T08:38:16.330Z,4.85
2019-05-25T08:40:45.916Z,4.95
2019-05-25T08:43:15.446Z,6.08
2019-05-25T08:45:45.059Z,5.30
2019-05-25T08:48:14.669Z,5.40
2019-05-25T08:50:45.060Z,25.88
2019-05-25T08:53:14.660Z,6.03
2019-05-25T08:55:44.363Z,5.90
2019-05-25T08:58:13.981Z,6.22
2019-05-25T09:00:43.685Z,8.70
2019-05-25T09:03:13.425Z,5.83
2019-05-25T09:05:43.124Z,6.83
2019-05-25T09:08:12.767Z,6.42
2019-05-25T09:10:42.341Z,4.30
2019-05-25T09:13:12.263Z,4.78
2019-05-25T09:15:42.321Z,4.95
2019-05-25T09:18:12.767Z,6.37
2019-05-25T09:20:42.451Z,4.92
2019-05-25T09:23:12.187Z,5.45
2019-05-25T09:25:42.464Z,6.00
2019-05-25T09:28:12.083Z,7.08
2019-05-25T09:30:41.695Z,5.47
2019-05-25T09:33:11.718Z,9.50
2019-05-25T09:35:41.424Z,5.97
2019-05-25T09:38:11.338Z,4.97
2019-05-25T09:40:40.957Z,5.37
2019-05-25T09:43:11.240Z,7.05
2019-05-25T09:45:40.833Z,8.50
2019-05-25T09:48:10.411Z,6.28
2019-05-25T09:51:00.447Z,7.83
2019-05-25T09:53:30.425Z,7.97
2019-05-25T09:56:00.343Z,7.22
2019-05-25T09:58:30.587Z,8.85
2019-05-25T10:01:00.513Z,10.43
2019-05-25T10:03:30.803Z,8.13
2019-05-25T10:06:10.115Z,6.67
2019-05-25T10:08:32.591Z,7.15
2019-05-25T10:11:02.372Z,7.80
2019-05-25T10:13:32.522Z,8.93
2019-05-25T10:16:02.539Z,7.33
2019-05-25T10:18:32.333Z,6.58
2019-05-25T10:21:02.874Z,7.37
2019-05-25T10:23:32.714Z,9.93
2019-05-25T10:26:03.417Z,10.35
2019-05-25T10:28:33.225Z,8.23
2019-05-25T10:31:03.192Z,9.90
2019-05-25T10:33:34.235Z,9.68
2019-05-25T10:36:03.971Z,10.45
2019-05-25T10:38:35.844Z,7.25
2019-05-25T10:41:10.563Z,7.72
2019-05-25T10:43:42.507Z,7.65
2019-05-25T10:46:12.392Z,7.45
2019-05-25T10:48:42.238Z,7.47
2019-05-25T10:51:12.754Z,10.72
2019-05-25T10:53:42.422Z,7.15
2019-05-25T10:56:12.198Z,8.13
2019-05-25T10:58:42.041Z,6.75
2019-05-25T11:01:11.903Z,6.78
2019-05-25T11:03:41.728Z,6.87
2019-05-25T11:06:11.619Z,8.08
2019-05-25T11:08:41.266Z,8.98
2019-05-25T11:11:10.972Z,8.85
2019-05-25T11:13:40.731Z,10.60
2019-05-25T11:16:10.442Z,9.03
2019-05-25T11:18:40.174Z,5.92
2019-05-25T11:21:09.997Z,6.55
2019-05-25T11:23:39.725Z,8.83
2019-05-25T11:26:09.463Z,7.60
2019-05-25T11:28:39.394Z,7.25
2019-05-25T11:31:09.113Z,6.70
2019-05-25T11:33:38.806Z,7.45
2019-05-25T11:36:08.596Z,7.95
2019-05-25T11:38:38.295Z,5.92
2019-05-25T11:41:07.960Z,8.53
2019-05-25T11:43:37.760Z,8.60
2019-05-25T11:46:07.557Z,7.62
2019-05-25T11:48:37.252Z,6.03
2019-05-25T11:51:07.529Z,7.15
2019-05-25T11:53:37.498Z,6.83
2019-05-25T11:56:07.216Z,7.17
2019-05-25T11:58:47.022Z,7.33
2019-05-25T12:01:08.407Z,8.75
2019-05-25T12:03:38.116Z,6.22
2019-05-25T12:06:07.885Z,7.72
2019-05-25T12:08:37.486Z,7.72
2019-05-25T12:11:07.281Z,7.67
2019-05-25T12:13:37.259Z,9.70
2019-05-25T12:16:07.849Z,7.37
2019-05-25T12:18:37.594Z,9.75
2019-05-25T12:21:07.346Z,10.03
2019-05-25T12:23:37.351Z,10.08
2019-05-25T12:26:06.992Z,8.63
2019-05-25T12:28:36.678Z,6.92
2019-05-25T12:31:06.464Z,9.00
2019-05-25T12:33:36.274Z,7.30
2019-05-25T12:36:06.667Z,8.23
2019-05-25T12:38:43.754Z,8.00
2019-05-25T12:41:13.540Z,10.53
2019-05-25T12:43:43.263Z,6.47
2019-05-25T12:46:13.098Z,20.50
2019-05-25T12:48:42.957Z,7.15
2019-05-25T12:51:17.616Z,9.75
2019-05-25T12:53:45.986Z,7.70
2019-05-25T12:56:15.753Z,6.83
2019-05-25T12:58:45.335Z,8.15
2019-05-25T13:01:15.058Z,6.35
2019-05-25T13:03:44.741Z,7.50
2019-05-25T13:06:18.110Z,7.62
2019-05-25T13:08:46.507Z,6.97
2019-05-25T13:11:17.117Z,5.72
2019-05-25T13:13:47.035Z,7.62
2019-05-25T13:16:16.740Z,4.30
2019-05-25T13:18:46.750Z,5.22
2019-05-25T13:21:16.467Z,7.37
2019-05-25T13:23:46.273Z,5.58
2019-05-25T13:26:16.818Z,5.10
2019-05-25T13:28:46.548Z,6.78
2019-05-25T13:31:16.681Z,5.17
2019-05-25T13:33:46.437Z,4.75
2019-05-25T13:36:17.046Z,3.98
2019-05-25T13:38:47.108Z,5.30
2019-05-25T13:41:16.875Z,6.05
2019-05-25T13:43:49.920Z,7.28
2019-05-25T13:46:17.963Z,3.92
2019-05-25T13:48:47.747Z,4.53
2019-05-25T13:51:17.558Z,6.00
2019-05-25T13:53:47.292Z,4.37
2019-05-25T13:56:17.167Z,5.40
2019-05-25T13:58:47.357Z,8.30
2019-05-25T14:01:28.123Z,4.10
2019-05-25T14:03:48.794Z,7.58
2019-05-25T14:06:18.555Z,7.97
2019-05-25T14:08:48.497Z,5.47
2019-05-25T14:11:18.338Z,4.30
2019-05-25T14:13:48.144Z,5.25
2019-05-25T14:16:17.763Z,5.20
2019-05-25T14:18:47.593Z,9.38
2019-05-25T14:21:17.381Z,6.30
2019-05-25T14:23:47.073Z,7.10
2019-05-25T14:26:16.757Z,5.62
2019-05-25T14:28:46.909Z,8.23
2019-05-25T14:31:16.671Z,5.65
2019-05-25T14:33:46.566Z,7.53
2019-05-25T14:36:16.295Z,4.42
2019-05-25T14:38:45.852Z,3.90
2019-05-25T14:41:15.452Z,5.42
2019-05-25T14:43:45.139Z,4.28
2019-05-25T14:46:26.794Z,3.47
2019-05-25T14:48:46.530Z,6.22
2019-05-25T14:51:16.246Z,6.55
2019-05-25T14:53:45.895Z,4.78
2019-05-25T14:56:15.545Z,4.05
2019-05-25T14:58:45.630Z,4.25
2019-05-25T15:01:15.755Z,4.33
2019-05-25T15:03:45.412Z,6.65
2019-05-25T15:06:15.291Z,5.90
2019-05-25T15:08:45.047Z,4.08
2019-05-25T15:11:15.379Z,3.55
2019-05-25T15:13:45.018Z,4.80
2019-05-25T15:16:14.736Z,3.98
2019-05-25T15:18:44.838Z,3.60
2019-05-25T15:21:14.545Z,4.95
2019-05-25T15:23:44.112Z,4.17
2019-05-25T15:26:13.896Z,5.90
2019-05-25T15:28:43.727Z,4.80
2019-05-25T15:31:13.491Z,6.12
2019-05-25T15:33:43.286Z,5.45
2019-05-25T15:36:13.142Z,6.42
2019-05-25T15:38:42.914Z,5.45
2019-05-25T15:41:12.793Z,3.60
2019-05-25T15:43:42.443Z,4.08
2019-05-25T15:46:12.027Z,7.30
2019-05-25T15:48:41.866Z,4.12
2019-05-25T15:51:11.603Z,5.42
2019-05-25T15:53:41.287Z,4.42
2019-05-25T15:56:11.048Z,4.92
2019-05-25T15:58:40.670Z,4.92
2019-05-25T16:01:10.418Z,6.03
2019-05-25T16:03:40.239Z,6.55
2019-05-25T16:06:10.060Z,6.42
2019-05-25T16:08:40.148Z,4.45
2019-05-25T16:11:09.948Z,4.45
2019-05-25T16:13:39.601Z,6.80
2019-05-25T16:16:09.369Z,4.83
2019-05-25T16:18:39.107Z,8.35
2019-05-25T16:21:08.825Z,4.62
2019-05-25T16:23:38.641Z,5.03
2019-05-25T16:26:08.445Z,3.25
2019-05-25T16:28:38.086Z,6.28
2019-05-25T16:31:07.872Z,3.75
2019-05-25T16:33:37.655Z,3.37
2019-05-25T16:36:07.669Z,4.40
2019-05-25T16:38:37.478Z,3.85
2019-05-25T16:41:07.224Z,4.70
2019-05-25T16:43:37.027Z,4.15
2019-05-25T16:46:07.052Z,7.40
2019-05-25T16:48:36.863Z,3.90
2019-05-25T16:51:06.584Z,4.35
2019-05-25T16:53:36.282Z,5.50
2019-05-25T16:56:06.024Z,4.40
2019-05-25T16:58:35.652Z,4.75
2019-05-25T17:01:05.901Z,3.17
2019-05-25T17:03:36.075Z,2.62
2019-05-25T17:06:05.838Z,3.83
2019-05-25T17:08:36.431Z,3.42
2019-05-25T17:11:06.242Z,4.90
2019-05-25T17:13:35.943Z,3.65
2019-05-25T17:16:05.714Z,3.05
2019-05-25T17:18:35.376Z,3.47
2019-05-25T17:21:05.108Z,3.33
2019-05-25T17:23:34.738Z,7.00
2019-05-25T17:26:04.771Z,3.08
2019-05-25T17:28:34.634Z,5.47
2019-05-25T17:31:04.353Z,4.00
2019-05-25T17:33:45.226Z,5.83
2019-05-25T17:36:05.872Z,3.85
2019-05-25T17:38:35.561Z,3.42
2019-05-25T17:41:06.891Z,4.22
2019-05-25T17:43:36.600Z,4.87
2019-05-25T17:46:06.321Z,4.60
2019-05-25T17:48:36.430Z,3.70
2019-05-25T17:51:06.134Z,3.20
2019-05-25T17:53:35.784Z,3.55
2019-05-25T17:56:05.623Z,4.85
2019-05-25T17:58:35.246Z,3.35
2019-05-25T18:01:05.247Z,3.77
2019-05-25T18:03:35.439Z,4.33
2019-05-25T18:06:05.304Z,3.17
2019-05-25T18:08:34.945Z,4.72
2019-05-25T18:11:05.155Z,4.00
2019-05-25T18:13:34.927Z,5.22
2019-05-25T18:16:04.642Z,5.33
2019-05-25T18:18:34.941Z,5.35
2019-05-25T18:21:05.656Z,3.85
2019-05-25T18:23:35.555Z,5.53
2019-05-25T18:26:05.331Z,8.10
2019-05-25T18:28:35.136Z,7.10
2019-05-25T18:31:05.928Z,6.42
2019-05-25T18:33:36.996Z,6.28
2019-05-25T18:36:06.840Z,4.65
2019-05-25T18:38:36.980Z,8.15
2019-05-25T18:41:06.860Z,4.72
2019-05-25T18:43:36.895Z,4.83
2019-05-25T18:46:07.152Z,6.92
2019-05-25T18:48:37.048Z,5.45
2019-05-25T18:51:08.616Z,5.30
2019-05-25T18:53:38.889Z,4.05
2019-05-25T18:56:08.974Z,4.95
2019-05-25T18:58:38.632Z,5.08
2019-05-25T19:01:08.508Z,7.05
2019-05-25T19:03:38.224Z,4.33
2019-05-25T19:06:07.959Z,8.88
2019-05-25T19:08:37.783Z,5.42
2019-05-25T19:11:07.663Z,5.60
2019-05-25T19:13:37.381Z,3.85
2019-05-25T19:16:07.575Z,4.45
2019-05-25T19:18:37.755Z,5.45
2019-05-25T19:21:07.762Z,4.58
2019-05-25T19:23:37.957Z,3.33
2019-05-25T19:26:07.844Z,7.65
2019-05-25T19:28:37.769Z,6.50
2019-05-25T19:31:07.844Z,4.45
2019-05-25T19:33:37.899Z,5.12
2019-05-25T19:36:07.967Z,5.08
2019-05-25T19:38:37.861Z,4.15
2019-05-25T19:41:08.026Z,5.12
2019-05-25T19:43:38.033Z,6.47
2019-05-25T19:46:08.215Z,6.58
2019-05-25T19:48:40.096Z,5.78
2019-05-25T19:51:10.767Z,4.95
2019-05-25T19:53:40.839Z,6.72
2019-05-25T19:56:11.225Z,4.90
2019-05-25T19:58:42.176Z,5.72
2019-05-25T20:01:12.508Z,6.67
2019-05-25T20:03:42.568Z,7.22
2019-05-25T20:06:12.409Z,3.90
2019-05-25T20:08:42.362Z,5.17
2019-05-25T20:11:12.442Z,4.83
2019-05-25T20:13:42.298Z,7.17
2019-05-25T20:16:13.276Z,5.37
2019-05-25T20:18:43.213Z,8.28
2019-05-25T20:21:13.220Z,4.87
2019-05-25T20:23:43.212Z,6.58
2019-05-25T20:26:13.148Z,5.70
2019-05-25T20:28:42.863Z,7.35
2019-05-25T20:31:12.891Z,13.98
2019-05-25T20:33:42.890Z,11.97
2019-05-25T20:36:13.066Z,6.00
2019-05-25T20:38:42.935Z,6.25
2019-05-25T20:41:12.565Z,6.05
2019-05-25T20:43:42.203Z,7.83
2019-05-25T20:46:12.228Z,7.92
2019-05-25T20:48:41.886Z,6.62
2019-05-25T20:51:11.528Z,6.60
2019-05-25T20:53:41.483Z,14.87
2019-05-25T20:56:11.354Z,25.48
2019-05-25T20:58:40.999Z,32.78
2019-05-25T21:01:10.790Z,27.82
2019-05-25T21:03:40.494Z,21.17
2019-05-25T21:06:11.073Z,27.37
2019-05-25T21:08:40.958Z,18.20
2019-05-25T21:11:10.686Z,22.22
2019-05-25T21:13:40.385Z,20.17
2019-05-25T21:16:10.085Z,14.73
2019-05-25T21:18:39.813Z,16.85
2019-05-25T21:21:09.491Z,16.02
2019-05-25T21:23:39.263Z,16.87
2019-05-25T21:26:08.919Z,13.18
2019-05-25T21:28:38.628Z,11.83
2019-05-25T21:31:08.365Z,15.48
2019-05-25T21:33:37.997Z,12.82
2019-05-25T21:36:09.347Z,10.68
2019-05-25T21:38:38.948Z,9.70
2019-05-25T21:41:08.513Z,12.03
2019-05-25T21:43:38.198Z,10.25
2019-05-25T21:46:07.944Z,11.88
2019-05-25T21:48:37.759Z,11.03
2019-05-25T21:51:07.447Z,16.50
2019-05-25T21:53:37.199Z,12.30
2019-05-25T21:56:06.932Z,17.15
2019-05-25T21:58:36.751Z,11.22
2019-05-25T22:01:06.925Z,15.98
2019-05-25T22:03:36.567Z,12.10
2019-05-25T22:06:06.289Z,11.60
2019-05-25T22:08:35.884Z,12.43
2019-05-25T22:11:05.765Z,11.25
2019-05-25T22:13:35.420Z,12.07
2019-05-25T22:16:05.168Z,11.05
2019-05-25T22:18:34.884Z,12.05
2019-05-25T22:21:04.535Z,9.50
2019-05-25T22:23:34.216Z,10.98
2019-05-25T22:26:03.946Z,11.70
2019-05-25T22:28:44.217Z,15.85
2019-05-25T22:31:05.117Z,13.18
2019-05-25T22:33:36.239Z,13.60
2019-05-25T22:36:05.940Z,11.38
2019-05-25T22:38:35.696Z,10.95
2019-05-25T22:41:05.608Z,14.68
2019-05-25T22:43:35.231Z,12.75
2019-05-25T22:46:04.908Z,13.18
2019-05-25T22:48:34.501Z,12.98
2019-05-25T22:51:04.204Z,13.22
2019-05-25T22:53:33.849Z,16.67
2019-05-25T22:56:03.492Z,16.17
2019-05-25T22:58:33.703Z,15.45
2019-05-25T23:01:03.491Z,14.07
2019-05-25T23:03:33.203Z,15.10
2019-05-25T23:06:03.087Z,22.45
2019-05-25T23:08:32.869Z,20.92
2019-05-25T23:11:02.676Z,19.40
2019-05-25T23:13:32.525Z,17.90
2019-05-25T23:16:02.204Z,19.25
2019-05-25T23:18:31.972Z,16.42
2019-05-25T23:21:01.573Z,14.58
2019-05-25T23:23:31.193Z,22.05
2019-05-25T23:26:00.830Z,18.57
2019-05-25T23:28:30.381Z,18.60
2019-05-25T23:31:00.084Z,20.45
2019-05-25T23:33:29.719Z,18.95
2019-05-25T23:35:59.385Z,17.65
2019-05-25T23:38:29.448Z,20.05
2019-05-25T23:41:00.053Z,19.98
2019-05-25T23:43:29.696Z,19.50
2019-05-25T23:45:59.473Z,17.90
2019-05-25T23:48:29.114Z,19.70
2019-05-25T23:50:58.771Z,16.20
2019-05-25T23:53:28.374Z,16.67
2019-05-25T23:55:58.061Z,18.65
2019-05-25T23:58:27.981Z,14.60
